Terminal Aerodrome Forecast
Issued by NWS

Home | Current Version | Previous Version | Text Only | Print | Product List | Glossary On
Versions: 1 2 3 4 5 6 7 8 9 10 11 12 13 14 15 16 17
000
FTUS46 KSTO 112326
TAFSAC
TAF
KSAC 112326Z 1200/1224 35005KT P6SM FEW250
     FM120400 VRB04KT 6SM HZ FEW250
     FM120900 VRB04KT 3SM BR FEW250
      TEMPO 1211/1214 1SM BR
     FM121500 VRB04KT P6SM FEW250=

USA.gov is the U.S. government's official web portal to all federal, state and local government web resources and services.